sensor_id;sensor_type;location;lat;lon;timestamp;temperature;humidity
47252;DHT22;32991;51.374;11.586;2022-08-03T00:00:24;18.50;90.10
47252;DHT22;32991;51.374;11.586;2022-08-03T00:02:52;18.40;90.30
47252;DHT22;32991;51.374;11.586;2022-08-03T00:05:19;18.50;90.70
47252;DHT22;32991;51.374;11.586;2022-08-03T00:07:46;18.40;91.10
47252;DHT22;32991;51.374;11.586;2022-08-03T00:10:15;18.30;91.70
47252;DHT22;32991;51.374;11.586;2022-08-03T00:12:42;18.30;92.20
47252;DHT22;32991;51.374;11.586;2022-08-03T00:15:09;18.30;92.50
47252;DHT22;32991;51.374;11.586;2022-08-03T00:17:43;18.30;92.70
47252;DHT22;32991;51.374;11.586;2022-08-03T00:20:22;18.30;92.70
47252;DHT22;32991;51.374;11.586;2022-08-03T00:22:50;18.20;92.60
47252;DHT22;32991;51.374;11.586;2022-08-03T00:25:17;18.20;92.80
47252;DHT22;32991;51.374;11.586;2022-08-03T00:27:44;18.20;92.90
47252;DHT22;32991;51.374;11.586;2022-08-03T00:30:14;18.20;93.20
47252;DHT22;32991;51.374;11.586;2022-08-03T00:32:43;18.20;92.80
47252;DHT22;32991;51.374;11.586;2022-08-03T00:35:11;18.20;92.60
47252;DHT22;32991;51.374;11.586;2022-08-03T00:37:58;18.20;92.30
47252;DHT22;32991;51.374;11.586;2022-08-03T00:40:25;18.30;92.30
47252;DHT22;32991;51.374;11.586;2022-08-03T00:42:54;18.20;92.30
47252;DHT22;32991;51.374;11.586;2022-08-03T00:45:28;18.20;92.70
47252;DHT22;32991;51.374;11.586;2022-08-03T00:47:56;18.20;93.10
47252;DHT22;32991;51.374;11.586;2022-08-03T00:50:25;18.20;93.50
47252;DHT22;32991;51.374;11.586;2022-08-03T00:52:53;18.10;93.80
47252;DHT22;32991;51.374;11.586;2022-08-03T00:55:21;18.10;94.20
47252;DHT22;32991;51.374;11.586;2022-08-03T00:57:49;18.10;94.60
47252;DHT22;32991;51.374;11.586;2022-08-03T01:00:22;18.00;95.10
47252;DHT22;32991;51.374;11.586;2022-08-03T01:02:50;18.00;95.70
47252;DHT22;32991;51.374;11.586;2022-08-03T01:05:17;17.90;96.30
47252;DHT22;32991;51.374;11.586;2022-08-03T01:10:40;17.80;97.80
47252;DHT22;32991;51.374;11.586;2022-08-03T01:13:38;17.70;98.10
47252;DHT22;32991;51.374;11.586;2022-08-03T01:16:47;17.50;99.00
47252;DHT22;32991;51.374;11.586;2022-08-03T01:25:23;17.40;99.90
47252;DHT22;32991;51.374;11.586;2022-08-03T01:31:03;17.30;99.90
47252;DHT22;32991;51.374;11.586;2022-08-03T01:33:35;17.20;99.90
47252;DHT22;32991;51.374;11.586;2022-08-03T01:36:06;17.20;99.90
47252;DHT22;32991;51.374;11.586;2022-08-03T01:38:35;17.20;99.90
47252;DHT22;32991;51.374;11.586;2022-08-03T01:41:07;17.20;99.90
47252;DHT22;32991;51.374;11.586;2022-08-03T01:43:36;17.30;99.90
47252;DHT22;32991;51.374;11.586;2022-08-03T01:46:26;17.30;99.90
47252;DHT22;32991;51.374;11.586;2022-08-03T01:48:55;17.20;99.90
47252;DHT22;32991;51.374;11.586;2022-08-03T01:51:23;17.30;99.90
47252;DHT22;32991;51.374;11.586;2022-08-03T01:54:11;17.30;99.90
47252;DHT22;32991;51.374;11.586;2022-08-03T01:56:40;17.40;99.90
47252;DHT22;32991;51.374;11.586;2022-08-03T01:59:09;17.40;99.90
47252;DHT22;32991;51.374;11.586;2022-08-03T02:01:37;17.40;99.90
47252;DHT22;32991;51.374;11.586;2022-08-03T02:04:26;17.40;99.90
47252;DHT22;32991;51.374;11.586;2022-08-03T02:06:54;17.40;99.90
47252;DHT22;32991;51.374;11.586;2022-08-03T02:09:29;17.40;99.90
47252;DHT22;32991;51.374;11.586;2022-08-03T02:11:56;17.40;99.90
47252;DHT22;32991;51.374;11.586;2022-08-03T02:14:25;17.40;99.90
47252;DHT22;32991;51.374;11.586;2022-08-03T02:16:53;17.40;99.90
47252;DHT22;32991;51.374;11.586;2022-08-03T02:19:20;17.50;99.90
47252;DHT22;32991;51.374;11.586;2022-08-03T02:21:50;17.50;99.90
47252;DHT22;32991;51.374;11.586;2022-08-03T02:24:27;17.60;99.90
47252;DHT22;32991;51.374;11.586;2022-08-03T02:26:55;17.60;99.90
47252;DHT22;32991;51.374;11.586;2022-08-03T02:29:24;17.70;99.90
47252;DHT22;32991;51.374;11.586;2022-08-03T02:32:09;17.70;99.90
47252;DHT22;32991;51.374;11.586;2022-08-03T02:34:39;17.70;99.90
47252;DHT22;32991;51.374;11.586;2022-08-03T02:37:09;17.70;99.90
47252;DHT22;32991;51.374;11.586;2022-08-03T02:39:38;17.70;99.90
47252;DHT22;32991;51.374;11.586;2022-08-03T02:42:07;17.60;99.90
47252;DHT22;32991;51.374;11.586;2022-08-03T02:44:38;17.50;99.90
47252;DHT22;32991;51.374;11.586;2022-08-03T02:47:09;17.30;99.90
47252;DHT22;32991;51.374;11.586;2022-08-03T02:49:37;17.10;99.90
47252;DHT22;32991;51.374;11.586;2022-08-03T02:52:19;16.90;99.90
47252;DHT22;32991;51.374;11.586;2022-08-03T02:54:48;16.80;99.90
47252;DHT22;32991;51.374;11.586;2022-08-03T02:57:18;16.70;99.90
47252;DHT22;32991;51.374;11.586;2022-08-03T02:59:46;16.60;99.90
47252;DHT22;32991;51.374;11.586;2022-08-03T03:02:14;16.50;99.90
47252;DHT22;32991;51.374;11.586;2022-08-03T03:04:43;16.50;99.90
47252;DHT22;32991;51.374;11.586;2022-08-03T03:07:31;16.60;99.90
47252;DHT22;32991;51.374;11.586;2022-08-03T03:10:20;16.60;99.90
47252;DHT22;32991;51.374;11.586;2022-08-03T03:12:49;16.70;99.90
47252;DHT22;32991;51.374;11.586;2022-08-03T03:15:17;16.80;99.90
47252;DHT22;32991;51.374;11.586;2022-08-03T03:17:45;16.80;99.90
47252;DHT22;32991;51.374;11.586;2022-08-03T03:20:14;16.90;99.90
47252;DHT22;32991;51.374;11.586;2022-08-03T03:22:57;16.90;99.90
47252;DHT22;32991;51.374;11.586;2022-08-03T03:25:25;17.00;99.90
47252;DHT22;32991;51.374;11.586;2022-08-03T03:27:53;17.00;99.90
47252;DHT22;32991;51.374;11.586;2022-08-03T03:30:20;17.20;99.90
47252;DHT22;32991;51.374;11.586;2022-08-03T03:32:47;17.10;99.90
47252;DHT22;32991;51.374;11.586;2022-08-03T03:35:14;17.20;99.90
47252;DHT22;32991;51.374;11.586;2022-08-03T03:37:42;17.30;99.90
47252;DHT22;32991;51.374;11.586;2022-08-03T03:40:09;17.30;99.90
47252;DHT22;32991;51.374;11.586;2022-08-03T03:42:36;17.40;99.90
47252;DHT22;32991;51.374;11.586;2022-08-03T03:45:07;17.40;99.70
47252;DHT22;32991;51.374;11.586;2022-08-03T03:47:35;17.50;99.50
47252;DHT22;32991;51.374;11.586;2022-08-03T03:50:04;17.50;99.20
47252;DHT22;32991;51.374;11.586;2022-08-03T03:52:32;17.60;99.00
47252;DHT22;32991;51.374;11.586;2022-08-03T03:54:59;17.60;98.70
47252;DHT22;32991;51.374;11.586;2022-08-03T03:57:27;17.70;98.70
47252;DHT22;32991;51.374;11.586;2022-08-03T03:59:54;17.80;98.20
47252;DHT22;32991;51.374;11.586;2022-08-03T04:02:21;17.90;97.90
47252;DHT22;32991;51.374;11.586;2022-08-03T04:04:48;17.90;97.70
47252;DHT22;32991;51.374;11.586;2022-08-03T04:07:45;18.00;97.50
47252;DHT22;32991;51.374;11.586;2022-08-03T04:10:32;18.00;97.40
47252;DHT22;32991;51.374;11.586;2022-08-03T04:13:20;18.10;97.20
47252;DHT22;32991;51.374;11.586;2022-08-03T04:15:49;18.20;97.00
47252;DHT22;32991;51.374;11.586;2022-08-03T04:18:18;18.20;96.70
47252;DHT22;32991;51.374;11.586;2022-08-03T04:20:46;18.30;96.50
47252;DHT22;32991;51.374;11.586;2022-08-03T04:23:16;18.40;96.80
47252;DHT22;32991;51.374;11.586;2022-08-03T04:25:48;18.60;96.50
47252;DHT22;32991;51.374;11.586;2022-08-03T04:28:16;18.70;96.40
47252;DHT22;32991;51.374;11.586;2022-08-03T04:30:58;18.90;96.30
47252;DHT22;32991;51.374;11.586;2022-08-03T04:33:26;19.10;96.10
47252;DHT22;32991;51.374;11.586;2022-08-03T04:35:57;19.30;96.00
47252;DHT22;32991;51.374;11.586;2022-08-03T04:38:34;19.50;95.40
47252;DHT22;32991;51.374;11.586;2022-08-03T04:41:02;19.70;95.10
47252;DHT22;32991;51.374;11.586;2022-08-03T04:43:32;19.90;94.60
47252;DHT22;32991;51.374;11.586;2022-08-03T04:46:00;20.10;94.20
47252;DHT22;32991;51.374;11.586;2022-08-03T04:48:27;20.30;93.90
47252;DHT22;32991;51.374;11.586;2022-08-03T04:50:54;20.60;93.60
47252;DHT22;32991;51.374;11.586;2022-08-03T04:53:21;20.80;93.50
47252;DHT22;32991;51.374;11.586;2022-08-03T04:55:48;21.00;93.90
47252;DHT22;32991;51.374;11.586;2022-08-03T04:58:15;21.10;93.80
47252;DHT22;32991;51.374;11.586;2022-08-03T05:00:42;21.10;93.20
47252;DHT22;32991;51.374;11.586;2022-08-03T05:03:11;21.20;92.80
47252;DHT22;32991;51.374;11.586;2022-08-03T05:05:51;21.30;92.20
47252;DHT22;32991;51.374;11.586;2022-08-03T05:08:18;21.40;91.50
47252;DHT22;32991;51.374;11.586;2022-08-03T05:10:54;21.60;90.80
47252;DHT22;32991;51.374;11.586;2022-08-03T05:13:24;21.80;89.80
47252;DHT22;32991;51.374;11.586;2022-08-03T05:15:51;21.90;88.50
47252;DHT22;32991;51.374;11.586;2022-08-03T05:18:18;22.00;87.70
47252;DHT22;32991;51.374;11.586;2022-08-03T05:20:45;22.20;86.50
47252;DHT22;32991;51.374;11.586;2022-08-03T05:23:12;22.50;85.30
47252;DHT22;32991;51.374;11.586;2022-08-03T05:25:39;22.80;83.40
47252;DHT22;32991;51.374;11.586;2022-08-03T05:28:15;23.20;81.90
47252;DHT22;32991;51.374;11.586;2022-08-03T05:30:42;23.50;80.70
47252;DHT22;32991;51.374;11.586;2022-08-03T05:33:09;23.90;79.20
47252;DHT22;32991;51.374;11.586;2022-08-03T05:35:36;24.20;78.30
47252;DHT22;32991;51.374;11.586;2022-08-03T05:38:25;24.60;77.40
47252;DHT22;32991;51.374;11.586;2022-08-03T05:40:59;25.00;75.40
47252;DHT22;32991;51.374;11.586;2022-08-03T05:43:46;25.20;74.20
47252;DHT22;32991;51.374;11.586;2022-08-03T05:46:13;25.60;73.10
47252;DHT22;32991;51.374;11.586;2022-08-03T05:48:40;25.90;72.20
47252;DHT22;32991;51.374;11.586;2022-08-03T05:51:07;26.30;71.30
47252;DHT22;32991;51.374;11.586;2022-08-03T05:53:40;26.70;69.40
47252;DHT22;32991;51.374;11.586;2022-08-03T05:56:08;27.10;68.80
47252;DHT22;32991;51.374;11.586;2022-08-03T05:58:44;27.40;67.50
47252;DHT22;32991;51.374;11.586;2022-08-03T06:01:11;27.80;64.90
47252;DHT22;32991;51.374;11.586;2022-08-03T06:03:38;28.10;65.30
47252;DHT22;32991;51.374;11.586;2022-08-03T06:06:05;28.30;64.60
47252;DHT22;32991;51.374;11.586;2022-08-03T06:08:33;28.50;63.80
47252;DHT22;32991;51.374;11.586;2022-08-03T06:11:00;28.70;62.80
47252;DHT22;32991;51.374;11.586;2022-08-03T06:13:26;28.90;62.30
47252;DHT22;32991;51.374;11.586;2022-08-03T06:15:53;29.00;62.00
47252;DHT22;32991;51.374;11.586;2022-08-03T06:18:20;29.10;61.60
47252;DHT22;32991;51.374;11.586;2022-08-03T06:20:47;29.30;60.90
47252;DHT22;32991;51.374;11.586;2022-08-03T06:23:15;29.40;60.40
47252;DHT22;32991;51.374;11.586;2022-08-03T06:25:45;29.60;60.20
47252;DHT22;32991;51.374;11.586;2022-08-03T06:28:12;29.90;59.20
47252;DHT22;32991;51.374;11.586;2022-08-03T06:31:04;30.10;58.70
47252;DHT22;32991;51.374;11.586;2022-08-03T06:33:32;30.40;58.60
47252;DHT22;32991;51.374;11.586;2022-08-03T06:36:19;30.50;57.80
47252;DHT22;32991;51.374;11.586;2022-08-03T06:38:46;30.60;57.40
47252;DHT22;32991;51.374;11.586;2022-08-03T06:41:12;30.70;56.40
47252;DHT22;32991;51.374;11.586;2022-08-03T06:43:39;30.90;56.10
47252;DHT22;32991;51.374;11.586;2022-08-03T06:46:26;31.10;56.00
47252;DHT22;32991;51.374;11.586;2022-08-03T06:48:53;31.30;55.70
47252;DHT22;32991;51.374;11.586;2022-08-03T06:51:22;31.70;55.60
47252;DHT22;32991;51.374;11.586;2022-08-03T06:54:09;32.10;54.90
47252;DHT22;32991;51.374;11.586;2022-08-03T06:56:36;32.50;54.70
47252;DHT22;32991;51.374;11.586;2022-08-03T06:59:03;32.70;53.60
47252;DHT22;32991;51.374;11.586;2022-08-03T07:01:30;32.80;53.40
47252;DHT22;32991;51.374;11.586;2022-08-03T07:03:57;32.80;53.70
47252;DHT22;32991;51.374;11.586;2022-08-03T07:06:23;32.80;53.20
47252;DHT22;32991;51.374;11.586;2022-08-03T07:08:50;32.80;53.40
47252;DHT22;32991;51.374;11.586;2022-08-03T07:11:23;32.80;53.40
47252;DHT22;32991;51.374;11.586;2022-08-03T07:13:50;32.90;53.40
47252;DHT22;32991;51.374;11.586;2022-08-03T07:16:17;33.10;53.00
47252;DHT22;32991;51.374;11.586;2022-08-03T07:18:44;33.20;53.10
47252;DHT22;32991;51.374;11.586;2022-08-03T07:21:11;33.20;52.60
47252;DHT22;32991;51.374;11.586;2022-08-03T07:23:38;33.40;52.60
47252;DHT22;32991;51.374;11.586;2022-08-03T07:26:05;33.70;52.50
47252;DHT22;32991;51.374;11.586;2022-08-03T07:28:32;34.10;51.70
47252;DHT22;32991;51.374;11.586;2022-08-03T07:30:59;34.40;51.10
47252;DHT22;32991;51.374;11.586;2022-08-03T07:33:26;34.80;50.50
47252;DHT22;32991;51.374;11.586;2022-08-03T07:35:53;35.40;49.60
47252;DHT22;32991;51.374;11.586;2022-08-03T07:38:19;35.80;48.80
47252;DHT22;32991;51.374;11.586;2022-08-03T07:40:47;36.00;47.60
47252;DHT22;32991;51.374;11.586;2022-08-03T07:43:13;36.20;47.10
47252;DHT22;32991;51.374;11.586;2022-08-03T07:45:40;36.40;46.80
47252;DHT22;32991;51.374;11.586;2022-08-03T07:48:07;36.60;46.30
47252;DHT22;32991;51.374;11.586;2022-08-03T07:50:38;36.60;45.40
47252;DHT22;32991;51.374;11.586;2022-08-03T07:53:05;36.40;45.50
47252;DHT22;32991;51.374;11.586;2022-08-03T07:55:31;36.20;45.50
47252;DHT22;32991;51.374;11.586;2022-08-03T07:58:06;36.20;45.50
47252;DHT22;32991;51.374;11.586;2022-08-03T08:00:35;36.40;44.60
47252;DHT22;32991;51.374;11.586;2022-08-03T08:03:03;36.60;44.50
47252;DHT22;32991;51.374;11.586;2022-08-03T08:05:30;36.80;44.00
47252;DHT22;32991;51.374;11.586;2022-08-03T08:07:57;37.20;44.10
47252;DHT22;32991;51.374;11.586;2022-08-03T08:10:24;37.70;43.30
47252;DHT22;32991;51.374;11.586;2022-08-03T08:12:51;38.00;42.40
47252;DHT22;32991;51.374;11.586;2022-08-03T08:15:18;38.10;42.10
47252;DHT22;32991;51.374;11.586;2022-08-03T08:17:57;38.30;41.60
47252;DHT22;32991;51.374;11.586;2022-08-03T08:20:28;38.70;41.70
47252;DHT22;32991;51.374;11.586;2022-08-03T08:23:01;39.00;41.30
47252;DHT22;32991;51.374;11.586;2022-08-03T08:25:37;39.20;40.70
47252;DHT22;32991;51.374;11.586;2022-08-03T08:28:04;39.30;40.70
47252;DHT22;32991;51.374;11.586;2022-08-03T08:30:51;39.30;40.20
47252;DHT22;32991;51.374;11.586;2022-08-03T08:33:18;39.10;39.60
47252;DHT22;32991;51.374;11.586;2022-08-03T08:35:51;38.80;40.40
47252;DHT22;32991;51.374;11.586;2022-08-03T08:38:18;38.60;40.40
47252;DHT22;32991;51.374;11.586;2022-08-03T08:40:45;38.50;40.70
47252;DHT22;32991;51.374;11.586;2022-08-03T08:43:12;38.50;40.30
47252;DHT22;32991;51.374;11.586;2022-08-03T08:45:40;38.60;40.50
47252;DHT22;32991;51.374;11.586;2022-08-03T08:48:08;38.80;40.60
47252;DHT22;32991;51.374;11.586;2022-08-03T08:50:36;39.30;39.30
47252;DHT22;32991;51.374;11.586;2022-08-03T08:53:06;39.70;39.60
47252;DHT22;32991;51.374;11.586;2022-08-03T08:55:37;40.10;39.30
47252;DHT22;32991;51.374;11.586;2022-08-03T08:58:27;40.30;38.50
47252;DHT22;32991;51.374;11.586;2022-08-03T09:00:54;40.20;39.70
47252;DHT22;32991;51.374;11.586;2022-08-03T09:03:21;40.50;38.90
47252;DHT22;32991;51.374;11.586;2022-08-03T09:05:58;40.70;38.40
47252;DHT22;32991;51.374;11.586;2022-08-03T09:08:25;40.60;38.00
47252;DHT22;32991;51.374;11.586;2022-08-03T09:10:52;40.60;38.70
47252;DHT22;32991;51.374;11.586;2022-08-03T09:13:19;40.80;38.70
47252;DHT22;32991;51.374;11.586;2022-08-03T09:15:46;41.10;38.20
47252;DHT22;32991;51.374;11.586;2022-08-03T09:18:29;41.30;38.00
47252;DHT22;32991;51.374;11.586;2022-08-03T09:24:02;40.70;38.30
47252;DHT22;32991;51.374;11.586;2022-08-03T09:26:34;41.30;38.40
47252;DHT22;32991;51.374;11.586;2022-08-03T09:29:05;41.70;37.80
47252;DHT22;32991;51.374;11.586;2022-08-03T09:31:41;41.80;37.60
47252;DHT22;32991;51.374;11.586;2022-08-03T09:34:12;41.80;37.80
47252;DHT22;32991;51.374;11.586;2022-08-03T09:36:47;42.00;37.70
47252;DHT22;32991;51.374;11.586;2022-08-03T09:42:09;41.20;38.10
47252;DHT22;32991;51.374;11.586;2022-08-03T09:44:39;41.10;38.30
47252;DHT22;32991;51.374;11.586;2022-08-03T09:47:09;41.60;38.20
47252;DHT22;32991;51.374;11.586;2022-08-03T09:49:37;42.20;37.50
47252;DHT22;32991;51.374;11.586;2022-08-03T09:52:14;42.10;37.70
47252;DHT22;32991;51.374;11.586;2022-08-03T09:55:07;42.30;37.00
47252;DHT22;32991;51.374;11.586;2022-08-03T09:58:06;42.70;37.40
47252;DHT22;32991;51.374;11.586;2022-08-03T10:03:22;42.70;36.70
47252;DHT22;32991;51.374;11.586;2022-08-03T10:05:50;42.20;37.10
47252;DHT22;32991;51.374;11.586;2022-08-03T10:08:23;42.00;37.20
47252;DHT22;32991;51.374;11.586;2022-08-03T10:10:51;42.00;37.20
47252;DHT22;32991;51.374;11.586;2022-08-03T10:13:23;42.30;37.50
47252;DHT22;32991;51.374;11.586;2022-08-03T10:15:50;42.80;37.20
47252;DHT22;32991;51.374;11.586;2022-08-03T10:18:37;43.60;37.20
47252;DHT22;32991;51.374;11.586;2022-08-03T10:21:07;44.40;36.50
47252;DHT22;32991;51.374;11.586;2022-08-03T10:23:36;45.00;36.10
47252;DHT22;32991;51.374;11.586;2022-08-03T10:26:06;44.80;35.30
47252;DHT22;32991;51.374;11.586;2022-08-03T10:28:44;44.20;36.00
47252;DHT22;32991;51.374;11.586;2022-08-03T10:31:13;44.20;36.10
47252;DHT22;32991;51.374;11.586;2022-08-03T10:33:46;44.60;36.40
47252;DHT22;32991;51.374;11.586;2022-08-03T10:36:22;44.90;36.30
47252;DHT22;32991;51.374;11.586;2022-08-03T10:38:51;44.80;35.80
47252;DHT22;32991;51.374;11.586;2022-08-03T10:41:20;44.50;35.70
47252;DHT22;32991;51.374;11.586;2022-08-03T10:44:03;44.30;36.20
47252;DHT22;32991;51.374;11.586;2022-08-03T10:46:33;44.30;35.60
47252;DHT22;32991;51.374;11.586;2022-08-03T10:49:01;44.10;35.90
47252;DHT22;32991;51.374;11.586;2022-08-03T10:51:28;43.90;35.50
47252;DHT22;32991;51.374;11.586;2022-08-03T10:53:58;43.70;36.10
47252;DHT22;32991;51.374;11.586;2022-08-03T11:02:14;43.00;35.80
47252;DHT22;32991;51.374;11.586;2022-08-03T11:04:42;42.90;36.40
47252;DHT22;32991;51.374;11.586;2022-08-03T11:07:17;43.30;36.60
47252;DHT22;32991;51.374;11.586;2022-08-03T11:09:47;44.20;36.10
47252;DHT22;32991;51.374;11.586;2022-08-03T11:12:31;45.00;36.20
47252;DHT22;32991;51.374;11.586;2022-08-03T11:15:05;46.00;35.00
47252;DHT22;32991;51.374;11.586;2022-08-03T11:17:33;46.30;34.60
47252;DHT22;32991;51.374;11.586;2022-08-03T11:20:43;45.50;34.60
47252;DHT22;32991;51.374;11.586;2022-08-03T11:23:12;44.00;35.20
47252;DHT22;32991;51.374;11.586;2022-08-03T11:26:11;43.20;36.00
47252;DHT22;32991;51.374;11.586;2022-08-03T11:28:39;42.90;36.10
47252;DHT22;32991;51.374;11.586;2022-08-03T11:34:09;42.80;35.70
47252;DHT22;32991;51.374;11.586;2022-08-03T11:39:49;43.40;35.30
47252;DHT22;32991;51.374;11.586;2022-08-03T11:44:50;44.10;35.10
47252;DHT22;32991;51.374;11.586;2022-08-03T11:47:17;44.10;35.40
47252;DHT22;32991;51.374;11.586;2022-08-03T11:49:46;44.10;35.40
47252;DHT22;32991;51.374;11.586;2022-08-03T11:52:15;44.50;35.20
47252;DHT22;32991;51.374;11.586;2022-08-03T11:54:43;45.10;35.30
47252;DHT22;32991;51.374;11.586;2022-08-03T11:57:10;45.50;34.30
47252;DHT22;32991;51.374;11.586;2022-08-03T11:59:37;45.20;34.30
47252;DHT22;32991;51.374;11.586;2022-08-03T12:02:08;44.70;34.80
47252;DHT22;32991;51.374;11.586;2022-08-03T12:04:56;44.50;34.70
47252;DHT22;32991;51.374;11.586;2022-08-03T12:07:28;44.40;35.00
47252;DHT22;32991;51.374;11.586;2022-08-03T12:10:15;44.50;34.90
47252;DHT22;32991;51.374;11.586;2022-08-03T12:12:42;44.30;35.00
47252;DHT22;32991;51.374;11.586;2022-08-03T12:15:12;44.30;35.10
47252;DHT22;32991;51.374;11.586;2022-08-03T12:17:40;44.50;34.90
47252;DHT22;32991;51.374;11.586;2022-08-03T12:20:08;44.20;34.70
47252;DHT22;32991;51.374;11.586;2022-08-03T12:22:39;44.00;35.10
47252;DHT22;32991;51.374;11.586;2022-08-03T12:25:08;44.10;35.00
47252;DHT22;32991;51.374;11.586;2022-08-03T12:31:03;44.70;34.80
47252;DHT22;32991;51.374;11.586;2022-08-03T12:33:53;45.10;34.10
47252;DHT22;32991;51.374;11.586;2022-08-03T12:36:19;45.10;34.20
47252;DHT22;32991;51.374;11.586;2022-08-03T12:38:54;44.70;34.10
47252;DHT22;32991;51.374;11.586;2022-08-03T12:41:36;44.10;34.20
47252;DHT22;32991;51.374;11.586;2022-08-03T12:44:05;43.70;34.50
47252;DHT22;32991;51.374;11.586;2022-08-03T12:46:40;43.20;34.70
47252;DHT22;32991;51.374;11.586;2022-08-03T12:49:14;42.40;35.20
47252;DHT22;32991;51.374;11.586;2022-08-03T12:54:15;42.10;35.60
47252;DHT22;32991;51.374;11.586;2022-08-03T12:57:06;41.90;35.20
47252;DHT22;32991;51.374;11.586;2022-08-03T12:59:35;42.00;35.30
47252;DHT22;32991;51.374;11.586;2022-08-03T13:02:23;42.20;35.00
47252;DHT22;32991;51.374;11.586;2022-08-03T13:04:51;42.20;35.00
47252;DHT22;32991;51.374;11.586;2022-08-03T13:07:19;42.30;35.00
47252;DHT22;32991;51.374;11.586;2022-08-03T13:09:49;42.20;35.00
47252;DHT22;32991;51.374;11.586;2022-08-03T13:12:20;42.40;35.20
47252;DHT22;32991;51.374;11.586;2022-08-03T13:14:58;42.80;35.10
47252;DHT22;32991;51.374;11.586;2022-08-03T13:17:26;42.70;34.80
47252;DHT22;32991;51.374;11.586;2022-08-03T13:19:53;42.50;35.20
47252;DHT22;32991;51.374;11.586;2022-08-03T13:22:21;42.40;35.40
47252;DHT22;32991;51.374;11.586;2022-08-03T13:24:50;42.60;35.20
47252;DHT22;32991;51.374;11.586;2022-08-03T13:27:18;42.70;35.10
47252;DHT22;32991;51.374;11.586;2022-08-03T13:30:06;42.90;34.80
47252;DHT22;32991;51.374;11.586;2022-08-03T13:32:34;43.00;33.90
47252;DHT22;32991;51.374;11.586;2022-08-03T13:35:01;42.70;33.90
47252;DHT22;32991;51.374;11.586;2022-08-03T13:37:29;42.40;33.90
47252;DHT22;32991;51.374;11.586;2022-08-03T13:39:58;42.20;34.40
47252;DHT22;32991;51.374;11.586;2022-08-03T13:42:30;42.30;34.30
47252;DHT22;32991;51.374;11.586;2022-08-03T13:44:57;42.20;34.60
47252;DHT22;32991;51.374;11.586;2022-08-03T13:47:25;42.00;35.10
47252;DHT22;32991;51.374;11.586;2022-08-03T13:49:52;41.70;35.10
47252;DHT22;32991;51.374;11.586;2022-08-03T13:52:34;41.40;35.00
47252;DHT22;32991;51.374;11.586;2022-08-03T13:55:03;41.40;35.50
47252;DHT22;32991;51.374;11.586;2022-08-03T13:57:30;41.10;35.20
47252;DHT22;32991;51.374;11.586;2022-08-03T14:00:18;41.00;35.30
47252;DHT22;32991;51.374;11.586;2022-08-03T14:02:59;41.00;35.40
47252;DHT22;32991;51.374;11.586;2022-08-03T14:05:42;40.80;35.00
47252;DHT22;32991;51.374;11.586;2022-08-03T14:08:10;40.50;35.30
47252;DHT22;32991;51.374;11.586;2022-08-03T14:10:40;40.40;35.80
47252;DHT22;32991;51.374;11.586;2022-08-03T14:13:07;40.40;35.90
47252;DHT22;32991;51.374;11.586;2022-08-03T14:15:34;40.30;35.90
47252;DHT22;32991;51.374;11.586;2022-08-03T14:18:07;39.90;35.90
47252;DHT22;32991;51.374;11.586;2022-08-03T14:20:53;39.50;36.30
47252;DHT22;32991;51.374;11.586;2022-08-03T14:23:23;39.00;36.30
47252;DHT22;32991;51.374;11.586;2022-08-03T14:25:50;38.60;36.50
47252;DHT22;32991;51.374;11.586;2022-08-03T14:28:22;38.20;36.90
47252;DHT22;32991;51.374;11.586;2022-08-03T14:30:50;38.10;36.90
47252;DHT22;32991;51.374;11.586;2022-08-03T14:33:18;38.00;36.70
47252;DHT22;32991;51.374;11.586;2022-08-03T14:35:45;37.90;36.60
47252;DHT22;32991;51.374;11.586;2022-08-03T14:38:12;37.50;36.80
47252;DHT22;32991;51.374;11.586;2022-08-03T14:40:38;37.10;37.10
47252;DHT22;32991;51.374;11.586;2022-08-03T14:43:05;36.80;37.40
47252;DHT22;32991;51.374;11.586;2022-08-03T14:45:32;36.70;37.90
47252;DHT22;32991;51.374;11.586;2022-08-03T14:48:00;36.50;37.70
47252;DHT22;32991;51.374;11.586;2022-08-03T14:50:47;36.00;38.00
47252;DHT22;32991;51.374;11.586;2022-08-03T14:53:18;35.70;38.40
47252;DHT22;32991;51.374;11.586;2022-08-03T14:55:45;35.80;38.70
47252;DHT22;32991;51.374;11.586;2022-08-03T14:58:17;35.90;38.70
47252;DHT22;32991;51.374;11.586;2022-08-03T15:00:47;35.90;38.70
47252;DHT22;32991;51.374;11.586;2022-08-03T15:03:15;35.90;38.70
47252;DHT22;32991;51.374;11.586;2022-08-03T15:05:43;35.70;38.60
47252;DHT22;32991;51.374;11.586;2022-08-03T15:08:10;35.90;38.80
47252;DHT22;32991;51.374;11.586;2022-08-03T15:10:37;36.00;38.70
47252;DHT22;32991;51.374;11.586;2022-08-03T15:13:11;35.90;38.20
47252;DHT22;32991;51.374;11.586;2022-08-03T15:15:38;35.80;38.50
47252;DHT22;32991;51.374;11.586;2022-08-03T15:18:05;35.80;38.60
47252;DHT22;32991;51.374;11.586;2022-08-03T15:20:32;35.90;38.70
47252;DHT22;32991;51.374;11.586;2022-08-03T15:23:10;35.90;38.60
47252;DHT22;32991;51.374;11.586;2022-08-03T15:25:37;35.70;38.60
47252;DHT22;32991;51.374;11.586;2022-08-03T15:28:24;35.60;38.90
47252;DHT22;32991;51.374;11.586;2022-08-03T15:30:51;35.50;39.50
47252;DHT22;32991;51.374;11.586;2022-08-03T15:33:18;35.40;39.10
47252;DHT22;32991;51.374;11.586;2022-08-03T15:35:45;35.30;38.80
47252;DHT22;32991;51.374;11.586;2022-08-03T15:38:13;35.20;39.20
47252;DHT22;32991;51.374;11.586;2022-08-03T15:40:40;35.20;39.20
47252;DHT22;32991;51.374;11.586;2022-08-03T15:43:07;35.10;39.00
47252;DHT22;32991;51.374;11.586;2022-08-03T15:45:34;35.10;39.30
47252;DHT22;32991;51.374;11.586;2022-08-03T15:48:03;35.00;39.60
47252;DHT22;32991;51.374;11.586;2022-08-03T15:50:30;35.00;39.70
47252;DHT22;32991;51.374;11.586;2022-08-03T15:52:57;35.20;40.10
47252;DHT22;32991;51.374;11.586;2022-08-03T15:55:24;35.20;39.60
47252;DHT22;32991;51.374;11.586;2022-08-03T15:57:51;35.00;39.60
47252;DHT22;32991;51.374;11.586;2022-08-03T16:00:39;34.80;39.90
47252;DHT22;32991;51.374;11.586;2022-08-03T16:03:06;34.70;40.10
47252;DHT22;32991;51.374;11.586;2022-08-03T16:05:33;34.60;40.00
47252;DHT22;32991;51.374;11.586;2022-08-03T16:08:00;34.70;40.10
47252;DHT22;32991;51.374;11.586;2022-08-03T16:10:30;34.80;40.10
47252;DHT22;32991;51.374;11.586;2022-08-03T16:12:57;34.90;40.20
47252;DHT22;32991;51.374;11.586;2022-08-03T16:15:26;34.80;40.20
47252;DHT22;32991;51.374;11.586;2022-08-03T16:17:53;34.70;40.20
47252;DHT22;32991;51.374;11.586;2022-08-03T16:20:20;34.60;40.30